sensor_id;sensor_type;location;lat;lon;timestamp;temperature;humidity
34815;DHT22;21030;53.912;15.214;2022-10-15T00:01:20;36.10;27.90
34815;DHT22;21030;53.912;15.214;2022-10-15T00:03:47;36.10;27.20
34815;DHT22;21030;53.912;15.214;2022-10-15T00:06:17;36.00;27.20
34815;DHT22;21030;53.912;15.214;2022-10-15T00:08:45;36.30;27.00
34815;DHT22;21030;53.912;15.214;2022-10-15T00:11:20;36.30;27.00
34815;DHT22;21030;53.912;15.214;2022-10-15T00:13:49;36.20;27.00
34815;DHT22;21030;53.912;15.214;2022-10-15T00:16:19;36.40;27.00
34815;DHT22;21030;53.912;15.214;2022-10-15T00:18:46;36.40;27.00
34815;DHT22;21030;53.912;15.214;2022-10-15T00:21:15;36.40;26.80
34815;DHT22;21030;53.912;15.214;2022-10-15T00:23:43;36.50;26.80
34815;DHT22;21030;53.912;15.214;2022-10-15T00:26:13;36.40;26.90
34815;DHT22;21030;53.912;15.214;2022-10-15T00:28:40;36.30;26.90
34815;DHT22;21030;53.912;15.214;2022-10-15T00:31:14;36.50;26.70
34815;DHT22;21030;53.912;15.214;2022-10-15T00:33:41;36.50;26.60
34815;DHT22;21030;53.912;15.214;2022-10-15T00:36:35;36.50;26.80
34815;DHT22;21030;53.912;15.214;2022-10-15T00:39:04;36.50;26.60
34815;DHT22;21030;53.912;15.214;2022-10-15T00:41:37;36.50;26.60
34815;DHT22;21030;53.912;15.214;2022-10-15T00:47:00;36.50;26.80
34815;DHT22;21030;53.912;15.214;2022-10-15T00:50:21;36.40;26.80
34815;DHT22;21030;53.912;15.214;2022-10-15T00:52:56;36.00;27.00
34815;DHT22;21030;53.912;15.214;2022-10-15T00:55:29;35.90;27.20
34815;DHT22;21030;53.912;15.214;2022-10-15T00:58:03;36.10;27.20
34815;DHT22;21030;53.912;15.214;2022-10-15T01:00:32;35.70;27.20
34815;DHT22;21030;53.912;15.214;2022-10-15T01:02:59;36.00;27.20
34815;DHT22;21030;53.912;15.214;2022-10-15T01:05:26;36.10;27.10
34815;DHT22;21030;53.912;15.214;2022-10-15T01:07:54;36.20;26.90
34815;DHT22;21030;53.912;15.214;2022-10-15T01:10:21;36.30;26.90
34815;DHT22;21030;53.912;15.214;2022-10-15T01:18:19;36.30;26.70
34815;DHT22;21030;53.912;15.214;2022-10-15T01:34:55;35.50;27.30
34815;DHT22;21030;53.912;15.214;2022-10-15T01:37:49;35.70;27.30
34815;DHT22;21030;53.912;15.214;2022-10-15T01:40:37;35.60;27.20
34815;DHT22;21030;53.912;15.214;2022-10-15T01:43:14;35.60;27.10
34815;DHT22;21030;53.912;15.214;2022-10-15T01:45:48;35.70;27.30
34815;DHT22;21030;53.912;15.214;2022-10-15T01:48:17;35.60;27.20
34815;DHT22;21030;53.912;15.214;2022-10-15T01:50:47;35.80;27.00
34815;DHT22;21030;53.912;15.214;2022-10-15T01:53:20;35.80;27.00
34815;DHT22;21030;53.912;15.214;2022-10-15T01:55:58;35.70;27.20
34815;DHT22;21030;53.912;15.214;2022-10-15T01:58:27;35.40;27.40
34815;DHT22;21030;53.912;15.214;2022-10-15T02:00:56;35.70;27.30
34815;DHT22;21030;53.912;15.214;2022-10-15T02:03:24;35.30;27.50
34815;DHT22;21030;53.912;15.214;2022-10-15T02:06:00;35.30;27.50
34815;DHT22;21030;53.912;15.214;2022-10-15T02:08:59;35.30;27.50
34815;DHT22;21030;53.912;15.214;2022-10-15T02:11:28;35.20;27.80
34815;DHT22;21030;53.912;15.214;2022-10-15T02:14:01;35.10;27.80
34815;DHT22;21030;53.912;15.214;2022-10-15T02:19:25;34.80;28.00
34815;DHT22;21030;53.912;15.214;2022-10-15T02:24:57;35.40;27.60
34815;DHT22;21030;53.912;15.214;2022-10-15T02:27:29;35.50;27.50
34815;DHT22;21030;53.912;15.214;2022-10-15T02:30:01;35.50;27.40
34815;DHT22;21030;53.912;15.214;2022-10-15T02:32:31;35.20;27.60
34815;DHT22;21030;53.912;15.214;2022-10-15T02:35:00;35.30;27.60
34815;DHT22;21030;53.912;15.214;2022-10-15T02:37:28;35.40;27.40
34815;DHT22;21030;53.912;15.214;2022-10-15T02:39:56;35.30;27.60
34815;DHT22;21030;53.912;15.214;2022-10-15T02:42:23;35.00;27.80
34815;DHT22;21030;53.912;15.214;2022-10-15T02:44:52;34.90;28.10
34815;DHT22;21030;53.912;15.214;2022-10-15T02:47:19;35.10;28.00
34815;DHT22;21030;53.912;15.214;2022-10-15T02:49:46;35.10;27.70
34815;DHT22;21030;53.912;15.214;2022-10-15T02:52:13;34.90;27.90
34815;DHT22;21030;53.912;15.214;2022-10-15T02:54:40;34.80;28.60
34815;DHT22;21030;53.912;15.214;2022-10-15T02:57:07;34.70;28.00
34815;DHT22;21030;53.912;15.214;2022-10-15T02:59:34;34.70;28.40
34815;DHT22;21030;53.912;15.214;2022-10-15T03:02:01;34.80;28.30
34815;DHT22;21030;53.912;15.214;2022-10-15T03:04:28;34.70;28.30
34815;DHT22;21030;53.912;15.214;2022-10-15T03:06:55;34.50;28.20
34815;DHT22;21030;53.912;15.214;2022-10-15T03:09:22;34.20;28.60
34815;DHT22;21030;53.912;15.214;2022-10-15T03:11:49;34.30;28.80
34815;DHT22;21030;53.912;15.214;2022-10-15T03:14:16;34.50;28.80
34815;DHT22;21030;53.912;15.214;2022-10-15T03:16:42;34.40;28.80
34815;DHT22;21030;53.912;15.214;2022-10-15T03:19:09;34.50;28.50
34815;DHT22;21030;53.912;15.214;2022-10-15T03:21:36;34.20;28.70
34815;DHT22;21030;53.912;15.214;2022-10-15T03:24:03;34.00;28.70
34815;DHT22;21030;53.912;15.214;2022-10-15T03:26:30;33.40;29.70
34815;DHT22;21030;53.912;15.214;2022-10-15T03:28:57;33.60;29.40
34815;DHT22;21030;53.912;15.214;2022-10-15T03:31:24;33.70;29.30
34815;DHT22;21030;53.912;15.214;2022-10-15T03:33:51;33.70;29.40
34815;DHT22;21030;53.912;15.214;2022-10-15T03:36:18;33.80;29.50
34815;DHT22;21030;53.912;15.214;2022-10-15T03:38:45;33.80;29.50
34815;DHT22;21030;53.912;15.214;2022-10-15T03:41:12;33.90;29.30
34815;DHT22;21030;53.912;15.214;2022-10-15T03:43:39;34.10;29.30
34815;DHT22;21030;53.912;15.214;2022-10-15T03:46:08;34.40;29.20
34815;DHT22;21030;53.912;15.214;2022-10-15T03:48:36;34.60;29.00
34815;DHT22;21030;53.912;15.214;2022-10-15T03:51:03;34.40;29.20
34815;DHT22;21030;53.912;15.214;2022-10-15T03:53:30;34.60;29.40
34815;DHT22;21030;53.912;15.214;2022-10-15T03:56:03;34.40;29.10
34815;DHT22;21030;53.912;15.214;2022-10-15T03:58:30;34.00;29.00
34815;DHT22;21030;53.912;15.214;2022-10-15T04:00:57;34.20;29.30
34815;DHT22;21030;53.912;15.214;2022-10-15T04:03:24;34.20;29.20
34815;DHT22;21030;53.912;15.214;2022-10-15T04:05:51;34.00;29.40
34815;DHT22;21030;53.912;15.214;2022-10-15T04:08:20;34.00;29.20
34815;DHT22;21030;53.912;15.214;2022-10-15T04:10:49;33.80;29.50
34815;DHT22;21030;53.912;15.214;2022-10-15T04:13:16;33.80;29.50
34815;DHT22;21030;53.912;15.214;2022-10-15T04:15:43;33.70;29.60
34815;DHT22;21030;53.912;15.214;2022-10-15T04:18:10;34.20;29.50
34815;DHT22;21030;53.912;15.214;2022-10-15T04:20:37;34.30;29.90
34815;DHT22;21030;53.912;15.214;2022-10-15T04:23:04;34.60;28.90
34815;DHT22;21030;53.912;15.214;2022-10-15T04:25:31;34.20;28.80
34815;DHT22;21030;53.912;15.214;2022-10-15T04:27:58;34.60;28.80
34815;DHT22;21030;53.912;15.214;2022-10-15T04:30:25;34.60;28.60
34815;DHT22;21030;53.912;15.214;2022-10-15T04:32:52;34.30;28.90
34815;DHT22;21030;53.912;15.214;2022-10-15T04:35:20;34.60;29.10
34815;DHT22;21030;53.912;15.214;2022-10-15T04:37:47;34.60;28.90
34815;DHT22;21030;53.912;15.214;2022-10-15T04:40:14;34.60;28.90
34815;DHT22;21030;53.912;15.214;2022-10-15T04:42:41;35.10;28.70
34815;DHT22;21030;53.912;15.214;2022-10-15T04:45:08;34.80;28.80
34815;DHT22;21030;53.912;15.214;2022-10-15T04:47:35;35.00;28.90
34815;DHT22;21030;53.912;15.214;2022-10-15T04:50:02;34.50;28.90
34815;DHT22;21030;53.912;15.214;2022-10-15T04:52:29;34.80;29.00
34815;DHT22;21030;53.912;15.214;2022-10-15T04:54:56;34.90;28.90
34815;DHT22;21030;53.912;15.214;2022-10-15T04:57:24;34.80;29.10
34815;DHT22;21030;53.912;15.214;2022-10-15T04:59:53;34.50;28.90
34815;DHT22;21030;53.912;15.214;2022-10-15T05:02:23;34.50;29.30
34815;DHT22;21030;53.912;15.214;2022-10-15T05:04:51;35.00;29.10
34815;DHT22;21030;53.912;15.214;2022-10-15T05:07:18;34.90;28.90
34815;DHT22;21030;53.912;15.214;2022-10-15T05:09:44;34.80;28.80
34815;DHT22;21030;53.912;15.214;2022-10-15T05:12:12;35.00;29.00
34815;DHT22;21030;53.912;15.214;2022-10-15T05:14:39;35.00;28.90
34815;DHT22;21030;53.912;15.214;2022-10-15T05:17:07;34.90;29.00
34815;DHT22;21030;53.912;15.214;2022-10-15T05:19:34;35.30;28.90
34815;DHT22;21030;53.912;15.214;2022-10-15T05:22:03;35.00;28.80
34815;DHT22;21030;53.912;15.214;2022-10-15T05:24:30;35.10;28.70
34815;DHT22;21030;53.912;15.214;2022-10-15T05:26:57;35.40;28.70
34815;DHT22;21030;53.912;15.214;2022-10-15T05:29:24;35.10;28.70
34815;DHT22;21030;53.912;15.214;2022-10-15T05:31:51;35.10;28.80
34815;DHT22;21030;53.912;15.214;2022-10-15T05:34:18;35.20;28.80
34815;DHT22;21030;53.912;15.214;2022-10-15T05:36:45;35.40;28.60
34815;DHT22;21030;53.912;15.214;2022-10-15T05:39:12;35.10;28.70
34815;DHT22;21030;53.912;15.214;2022-10-15T05:41:39;35.30;28.70
34815;DHT22;21030;53.912;15.214;2022-10-15T05:44:06;35.60;28.70
34815;DHT22;21030;53.912;15.214;2022-10-15T05:46:33;35.60;28.40
34815;DHT22;21030;53.912;15.214;2022-10-15T05:49:00;35.70;28.40
34815;DHT22;21030;53.912;15.214;2022-10-15T05:51:27;35.70;28.30
34815;DHT22;21030;53.912;15.214;2022-10-15T05:53:56;35.40;28.60
34815;DHT22;21030;53.912;15.214;2022-10-15T05:56:25;35.20;28.90
34815;DHT22;21030;53.912;15.214;2022-10-15T05:58:53;35.40;28.80
34815;DHT22;21030;53.912;15.214;2022-10-15T06:01:21;35.50;28.70
34815;DHT22;21030;53.912;15.214;2022-10-15T06:03:48;35.60;28.80
34815;DHT22;21030;53.912;15.214;2022-10-15T06:06:23;35.50;28.80
34815;DHT22;21030;53.912;15.214;2022-10-15T06:08:52;35.60;28.70
34815;DHT22;21030;53.912;15.214;2022-10-15T06:11:19;35.70;28.60
34815;DHT22;21030;53.912;15.214;2022-10-15T06:13:46;35.50;28.80
34815;DHT22;21030;53.912;15.214;2022-10-15T06:16:14;35.80;28.80
34815;DHT22;21030;53.912;15.214;2022-10-15T06:18:48;35.60;28.70
34815;DHT22;21030;53.912;15.214;2022-10-15T06:21:15;35.40;29.10
34815;DHT22;21030;53.912;15.214;2022-10-15T06:23:42;35.00;29.20
34815;DHT22;21030;53.912;15.214;2022-10-15T06:26:10;35.10;29.10
34815;DHT22;21030;53.912;15.214;2022-10-15T06:28:37;35.10;29.40
34815;DHT22;21030;53.912;15.214;2022-10-15T06:31:05;35.20;29.30
34815;DHT22;21030;53.912;15.214;2022-10-15T06:33:33;35.00;29.30
34815;DHT22;21030;53.912;15.214;2022-10-15T06:36:02;34.70;29.50
34815;DHT22;21030;53.912;15.214;2022-10-15T06:38:29;34.50;29.70
34815;DHT22;21030;53.912;15.214;2022-10-15T06:40:56;34.70;29.80
34815;DHT22;21030;53.912;15.214;2022-10-15T06:43:23;34.70;29.70
34815;DHT22;21030;53.912;15.214;2022-10-15T06:45:50;34.60;30.00
34815;DHT22;21030;53.912;15.214;2022-10-15T06:48:17;34.70;30.00
34815;DHT22;21030;53.912;15.214;2022-10-15T06:50:44;34.90;30.00
34815;DHT22;21030;53.912;15.214;2022-10-15T06:53:12;35.00;29.80
34815;DHT22;21030;53.912;15.214;2022-10-15T06:55:39;35.30;29.50
34815;DHT22;21030;53.912;15.214;2022-10-15T06:58:06;35.40;29.60
34815;DHT22;21030;53.912;15.214;2022-10-15T07:00:33;35.40;29.40
34815;DHT22;21030;53.912;15.214;2022-10-15T07:03:04;35.00;29.70
34815;DHT22;21030;53.912;15.214;2022-10-15T07:05:33;34.90;29.90
34815;DHT22;21030;53.912;15.214;2022-10-15T07:08:00;34.80;30.00
34815;DHT22;21030;53.912;15.214;2022-10-15T07:10:28;34.70;30.20
34815;DHT22;21030;53.912;15.214;2022-10-15T07:12:57;34.30;30.20
34815;DHT22;21030;53.912;15.214;2022-10-15T07:15:24;34.70;30.40
34815;DHT22;21030;53.912;15.214;2022-10-15T07:17:53;34.60;30.30
34815;DHT22;21030;53.912;15.214;2022-10-15T07:20:30;35.00;30.40
34815;DHT22;21030;53.912;15.214;2022-10-15T07:22:59;35.00;30.00
34815;DHT22;21030;53.912;15.214;2022-10-15T07:25:27;34.60;30.30
34815;DHT22;21030;53.912;15.214;2022-10-15T07:27:55;34.80;30.20
34815;DHT22;21030;53.912;15.214;2022-10-15T07:30:24;35.00;30.10
34815;DHT22;21030;53.912;15.214;2022-10-15T07:32:56;34.30;30.00
34815;DHT22;21030;53.912;15.214;2022-10-15T07:35:24;34.50;31.40
34815;DHT22;21030;53.912;15.214;2022-10-15T07:37:51;33.50;31.10
34815;DHT22;21030;53.912;15.214;2022-10-15T07:40:18;33.90;31.50
34815;DHT22;21030;53.912;15.214;2022-10-15T07:42:52;34.10;31.20
34815;DHT22;21030;53.912;15.214;2022-10-15T07:45:20;34.40;31.10
34815;DHT22;21030;53.912;15.214;2022-10-15T07:47:47;33.50;31.30
34815;DHT22;21030;53.912;15.214;2022-10-15T07:50:18;33.60;32.40
34815;DHT22;21030;53.912;15.214;2022-10-15T07:52:45;33.70;31.90
34815;DHT22;21030;53.912;15.214;2022-10-15T07:55:14;33.60;31.70
34815;DHT22;21030;53.912;15.214;2022-10-15T07:57:41;33.20;32.00
34815;DHT22;21030;53.912;15.214;2022-10-15T08:00:10;33.60;32.30
34815;DHT22;21030;53.912;15.214;2022-10-15T08:02:38;34.10;31.90
34815;DHT22;21030;53.912;15.214;2022-10-15T08:05:06;34.60;31.50
34815;DHT22;21030;53.912;15.214;2022-10-15T08:07:33;34.60;30.90
34815;DHT22;21030;53.912;15.214;2022-10-15T08:10:02;34.60;31.40
34815;DHT22;21030;53.912;15.214;2022-10-15T08:12:31;34.20;31.30
34815;DHT22;21030;53.912;15.214;2022-10-15T08:14:58;33.80;31.70
34815;DHT22;21030;53.912;15.214;2022-10-15T08:17:25;34.30;31.90
34815;DHT22;21030;53.912;15.214;2022-10-15T08:19:52;34.50;31.40
34815;DHT22;21030;53.912;15.214;2022-10-15T08:22:19;34.10;31.40
34815;DHT22;21030;53.912;15.214;2022-10-15T08:24:46;33.50;31.70
34815;DHT22;21030;53.912;15.214;2022-10-15T08:27:13;33.40;32.50
34815;DHT22;21030;53.912;15.214;2022-10-15T08:29:40;33.20;32.50
34815;DHT22;21030;53.912;15.214;2022-10-15T08:32:07;32.90;33.10
34815;DHT22;21030;53.912;15.214;2022-10-15T08:34:34;33.10;33.20
34815;DHT22;21030;53.912;15.214;2022-10-15T08:37:02;33.30;33.00
34815;DHT22;21030;53.912;15.214;2022-10-15T08:39:29;33.20;32.70
34815;DHT22;21030;53.912;15.214;2022-10-15T08:42:21;32.90;33.40
34815;DHT22;21030;53.912;15.214;2022-10-15T08:44:57;32.40;33.70
34815;DHT22;21030;53.912;15.214;2022-10-15T08:47:39;33.20;33.20
34815;DHT22;21030;53.912;15.214;2022-10-15T08:50:27;33.10;32.80
34815;DHT22;21030;53.912;15.214;2022-10-15T08:52:59;33.50;32.90
34815;DHT22;21030;53.912;15.214;2022-10-15T08:55:34;33.90;32.40
34815;DHT22;21030;53.912;15.214;2022-10-15T09:00:39;33.80;32.70
34815;DHT22;21030;53.912;15.214;2022-10-15T09:11:49;33.10;33.20
34815;DHT22;21030;53.912;15.214;2022-10-15T09:14:25;33.30;33.60
34815;DHT22;21030;53.912;15.214;2022-10-15T09:16:53;33.20;34.40
34815;DHT22;21030;53.912;15.214;2022-10-15T09:19:22;33.60;33.20
34815;DHT22;21030;53.912;15.214;2022-10-15T09:21:51;33.90;32.70
34815;DHT22;21030;53.912;15.214;2022-10-15T09:24:23;33.80;32.60
34815;DHT22;21030;53.912;15.214;2022-10-15T09:27:16;33.60;32.50
34815;DHT22;21030;53.912;15.214;2022-10-15T09:33:04;33.80;32.70
34815;DHT22;21030;53.912;15.214;2022-10-15T09:35:55;33.20;33.30
34815;DHT22;21030;53.912;15.214;2022-10-15T09:38:47;33.50;33.20
34815;DHT22;21030;53.912;15.214;2022-10-15T09:43:56;32.10;35.20
34815;DHT22;21030;53.912;15.214;2022-10-15T09:46:27;32.50;34.90
34815;DHT22;21030;53.912;15.214;2022-10-15T09:49:10;32.60;34.60
34815;DHT22;21030;53.912;15.214;2022-10-15T09:57:27;33.40;33.60
34815;DHT22;21030;53.912;15.214;2022-10-15T09:59:59;33.70;33.50
34815;DHT22;21030;53.912;15.214;2022-10-15T10:02:29;34.30;32.80
34815;DHT22;21030;53.912;15.214;2022-10-15T10:04:56;33.70;32.70
34815;DHT22;21030;53.912;15.214;2022-10-15T10:07:33;34.20;33.00
34815;DHT22;21030;53.912;15.214;2022-10-15T10:10:06;34.80;32.20
34815;DHT22;21030;53.912;15.214;2022-10-15T10:12:49;35.00;32.20
34815;DHT22;21030;53.912;15.214;2022-10-15T10:15:40;35.40;31.80
34815;DHT22;21030;53.912;15.214;2022-10-15T10:18:21;35.60;31.30
34815;DHT22;21030;53.912;15.214;2022-10-15T10:20:58;36.00;30.90
34815;DHT22;21030;53.912;15.214;2022-10-15T10:23:36;35.20;31.30
34815;DHT22;21030;53.912;15.214;2022-10-15T10:26:05;34.80;31.90
34815;DHT22;21030;53.912;15.214;2022-10-15T10:31:09;33.40;33.60
34815;DHT22;21030;53.912;15.214;2022-10-15T10:33:48;33.20;34.00
34815;DHT22;21030;53.912;15.214;2022-10-15T10:36:32;33.10;34.80
34815;DHT22;21030;53.912;15.214;2022-10-15T10:41:52;33.40;34.20
34815;DHT22;21030;53.912;15.214;2022-10-15T10:49:53;32.60;35.50
34815;DHT22;21030;53.912;15.214;2022-10-15T10:57:48;33.40;34.40
34815;DHT22;21030;53.912;15.214;2022-10-15T11:00:20;32.90;35.40
34815;DHT22;21030;53.912;15.214;2022-10-15T11:02:49;33.10;35.00
34815;DHT22;21030;53.912;15.214;2022-10-15T11:05:24;32.80;35.30
34815;DHT22;21030;53.912;15.214;2022-10-15T11:07:56;32.80;35.70
34815;DHT22;21030;53.912;15.214;2022-10-15T11:10:36;33.60;35.00
34815;DHT22;21030;53.912;15.214;2022-10-15T11:23:49;33.00;35.40
34815;DHT22;21030;53.912;15.214;2022-10-15T11:46:12;33.70;34.50
34815;DHT22;21030;53.912;15.214;2022-10-15T11:57:00;35.60;32.80
34815;DHT22;21030;53.912;15.214;2022-10-15T11:59:37;35.50;32.20
34815;DHT22;21030;53.912;15.214;2022-10-15T12:02:17;35.70;32.30
34815;DHT22;21030;53.912;15.214;2022-10-15T12:04:53;36.10;31.30
34815;DHT22;21030;53.912;15.214;2022-10-15T12:07:43;36.40;30.60
34815;DHT22;21030;53.912;15.214;2022-10-15T12:15:26;37.10;30.00
34815;DHT22;21030;53.912;15.214;2022-10-15T12:20:44;37.70;29.20
34815;DHT22;21030;53.912;15.214;2022-10-15T12:26:00;38.00;29.10
34815;DHT22;21030;53.912;15.214;2022-10-15T12:28:29;37.10;29.40
34815;DHT22;21030;53.912;15.214;2022-10-15T12:31:02;36.10;30.10
34815;DHT22;21030;53.912;15.214;2022-10-15T12:33:48;35.40;31.30
34815;DHT22;21030;53.912;15.214;2022-10-15T12:39:05;35.90;31.70
34815;DHT22;21030;53.912;15.214;2022-10-15T12:41:52;35.60;31.60
34815;DHT22;21030;53.912;15.214;2022-10-15T12:46:49;35.70;31.40
34815;DHT22;21030;53.912;15.214;2022-10-15T12:51:56;35.30;32.30
34815;DHT22;21030;53.912;15.214;2022-10-15T13:00:00;35.10;32.60
34815;DHT22;21030;53.912;15.214;2022-10-15T13:02:39;35.60;32.00
34815;DHT22;21030;53.912;15.214;2022-10-15T13:05:33;35.70;31.70
34815;DHT22;21030;53.912;15.214;2022-10-15T13:08:12;36.40;31.00
34815;DHT22;21030;53.912;15.214;2022-10-15T13:10:47;36.50;30.80
34815;DHT22;21030;53.912;15.214;2022-10-15T13:13:18;37.10;30.10
34815;DHT22;21030;53.912;15.214;2022-10-15T13:16:24;37.30;29.90
34815;DHT22;21030;53.912;15.214;2022-10-15T13:18:49;37.60;29.60
34815;DHT22;21030;53.912;15.214;2022-10-15T13:21:21;37.00;29.80
34815;DHT22;21030;53.912;15.214;2022-10-15T13:23:50;36.20;30.00
34815;DHT22;21030;53.912;15.214;2022-10-15T13:28:48;36.30;30.90
34815;DHT22;21030;53.912;15.214;2022-10-15T13:34:10;36.60;30.70
34815;DHT22;21030;53.912;15.214;2022-10-15T13:36:40;36.30;30.30
34815;DHT22;21030;53.912;15.214;2022-10-15T13:39:22;36.00;30.20
34815;DHT22;21030;53.912;15.214;2022-10-15T13:41:50;35.40;31.20
34815;DHT22;21030;53.912;15.214;2022-10-15T13:44:22;36.00;31.30
34815;DHT22;21030;53.912;15.214;2022-10-15T13:46:50;35.90;30.40
34815;DHT22;21030;53.912;15.214;2022-10-15T13:49:17;36.10;30.40
34815;DHT22;21030;53.912;15.214;2022-10-15T13:51:49;36.20;30.00
34815;DHT22;21030;53.912;15.214;2022-10-15T13:54:23;36.50;29.60
34815;DHT22;21030;53.912;15.214;2022-10-15T13:56:58;35.40;29.50
34815;DHT22;21030;53.912;15.214;2022-10-15T13:59:29;35.30;30.00
34815;DHT22;21030;53.912;15.214;2022-10-15T14:01:59;35.80;29.60
34815;DHT22;21030;53.912;15.214;2022-10-15T14:04:29;35.90;29.50
34815;DHT22;21030;53.912;15.214;2022-10-15T14:06:59;36.20;28.90
34815;DHT22;21030;53.912;15.214;2022-10-15T14:09:36;35.60;28.70
34815;DHT22;21030;53.912;15.214;2022-10-15T14:12:05;35.60;29.00
34815;DHT22;21030;53.912;15.214;2022-10-15T14:14:38;36.50;28.80
34815;DHT22;21030;53.912;15.214;2022-10-15T14:17:24;37.50;28.30
34815;DHT22;21030;53.912;15.214;2022-10-15T14:19:59;38.00;27.60
34815;DHT22;21030;53.912;15.214;2022-10-15T14:22:49;38.80;27.00
34815;DHT22;21030;53.912;15.214;2022-10-15T14:25:22;38.90;26.70
34815;DHT22;21030;53.912;15.214;2022-10-15T14:27:51;39.30;26.40
34815;DHT22;21030;53.912;15.214;2022-10-15T14:30:25;39.60;26.10
34815;DHT22;21030;53.912;15.214;2022-10-15T14:32:53;39.50;25.90
34815;DHT22;21030;53.912;15.214;2022-10-15T14:35:35;39.80;25.90
34815;DHT22;21030;53.912;15.214;2022-10-15T14:40:36;39.80;25.90
34815;DHT22;21030;53.912;15.214;2022-10-15T14:43:15;39.70;25.90
34815;DHT22;21030;53.912;15.214;2022-10-15T14:48:23;39.60;26.00
34815;DHT22;21030;53.912;15.214;2022-10-15T14:50:50;39.80;25.80
34815;DHT22;21030;53.912;15.214;2022-10-15T14:53:22;40.00;26.00
34815;DHT22;21030;53.912;15.214;2022-10-15T14:56:00;40.40;25.80
34815;DHT22;21030;53.912;15.214;2022-10-15T14:58:28;39.80;25.90
34815;DHT22;21030;53.912;15.214;2022-10-15T15:01:04;40.00;26.10
34815;DHT22;21030;53.912;15.214;2022-10-15T15:03:41;40.30;26.00
34815;DHT22;21030;53.912;15.214;2022-10-15T15:06:09;39.50;26.10
34815;DHT22;21030;53.912;15.214;2022-10-15T15:08:36;39.10;26.70
34815;DHT22;21030;53.912;15.214;2022-10-15T15:11:05;39.00;26.90
34815;DHT22;21030;53.912;15.214;2022-10-15T15:13:38;38.90;27.00
34815;DHT22;21030;53.912;15.214;2022-10-15T15:16:08;38.40;27.20
34815;DHT22;21030;53.912;15.214;2022-10-15T15:18:35;37.90;27.70
34815;DHT22;21030;53.912;15.214;2022-10-15T15:21:05;37.90;27.90
34815;DHT22;21030;53.912;15.214;2022-10-15T15:23:33;37.70;28.10
34815;DHT22;21030;53.912;15.214;2022-10-15T15:26:00;37.60;28.20
34815;DHT22;21030;53.912;15.214;2022-10-15T15:28:28;37.80;28.50
34815;DHT22;21030;53.912;15.214;2022-10-15T15:30:56;37.70;28.50
34815;DHT22;21030;53.912;15.214;2022-10-15T15:33:24;37.50;28.40
34815;DHT22;21030;53.912;15.214;2022-10-15T15:36:11;37.10;28.80
34815;DHT22;21030;53.912;15.214;2022-10-15T15:38:38;37.30;29.00
34815;DHT22;21030;53.912;15.214;2022-10-15T15:41:16;37.10;29.20
34815;DHT22;21030;53.912;15.214;2022-10-15T15:43:44;37.20;29.20
34815;DHT22;21030;53.912;15.214;2022-10-15T15:46:12;37.40;29.30
34815;DHT22;21030;53.912;15.214;2022-10-15T15:48:39;37.70;29.10
34815;DHT22;21030;53.912;15.214;2022-10-15T15:53:47;38.30;28.70
34815;DHT22;21030;53.912;15.214;2022-10-15T15:56:14;38.40;28.50
34815;DHT22;21030;53.912;15.214;2022-10-15T15:58:46;38.50;28.40
34815;DHT22;21030;53.912;15.214;2022-10-15T16:01:17;38.70;28.30
34815;DHT22;21030;53.912;15.214;2022-10-15T16:03:44;38.70;28.20
34815;DHT22;21030;53.912;15.214;2022-10-15T16:06:14;38.70;28.20
34815;DHT22;21030;53.912;15.214;2022-10-15T16:08:42;38.80;28.10
34815;DHT22;21030;53.912;15.214;2022-10-15T16:11:09;38.90;28.10
34815;DHT22;21030;53.912;15.214;2022-10-15T16:13:41;38.70;28.10
34815;DHT22;21030;53.912;15.214;2022-10-15T16:16:11;38.70;28.20
34815;DHT22;21030;53.912;15.214;2022-10-15T16:18:38;38.60;28.20
34815;DHT22;21030;53.912;15.214;2022-10-15T16:21:05;38.80;28.20
34815;DHT22;21030;53.912;15.214;2022-10-15T16:23:33;38.70;28.20
34815;DHT22;21030;53.912;15.214;2022-10-15T16:26:00;38.50;28.40
34815;DHT22;21030;53.912;15.214;2022-10-15T16:28:27;38.50;28.40
34815;DHT22;21030;53.912;15.214;2022-10-15T16:30:54;38.50;28.50
34815;DHT22;21030;53.912;15.214;2022-10-15T16:33:21;38.40;28.50
34815;DHT22;21030;53.912;15.214;2022-10-15T16:35:51;38.50;28.60
34815;DHT22;21030;53.912;15.214;2022-10-15T16:38:19;38.50;28.50
34815;DHT22;21030;53.912;15.214;2022-10-15T16:40:46;38.40;28.60
34815;DHT22;21030;53.912;15.214;2022-10-15T16:43:13;38.20;28.70
34815;DHT22;21030;53.912;15.214;2022-10-15T16:45:43;38.10;28.70
34815;DHT22;21030;53.912;15.214;2022-10-15T16:48:14;37.80;28.90
34815;DHT22;21030;53.912;15.214;2022-10-15T16:50:41;37.80;29.00
34815;DHT22;21030;53.912;15.214;2022-10-15T16:53:08;37.70;29.00
34815;DHT22;21030;53.912;15.214;2022-10-15T16:55:36;37.70;28.90
34815;DHT22;21030;53.912;15.214;2022-10-15T16:58:03;37.80;29.00
34815;DHT22;21030;53.912;15.214;2022-10-15T17:00:30;37.90;29.00
34815;DHT22;21030;53.912;15.214;2022-10-15T17:02:57;37.90;28.90
34815;DHT22;21030;53.912;15.214;2022-10-15T17:05:30;37.80;28.90
34815;DHT22;21030;53.912;15.214;2022-10-15T17:07:57;37.60;28.90
34815;DHT22;21030;53.912;15.214;2022-10-15T17:10:24;37.60;29.10
34815;DHT22;21030;53.912;15.214;2022-10-15T17:12:52;37.50;29.80
34815;DHT22;21030;53.912;15.214;2022-10-15T17:15:19;37.50;29.20
34815;DHT22;21030;53.912;15.214;2022-10-15T17:17:46;37.50;29.20
34815;DHT22;21030;53.912;15.214;2022-10-15T17:20:13;37.40;29.30
34815;DHT22;21030;53.912;15.214;2022-10-15T17:22:40;37.40;29.30
34815;DHT22;21030;53.912;15.214;2022-10-15T17:25:07;37.30;29.30
34815;DHT22;21030;53.912;15.214;2022-10-15T17:27:35;37.20;29.30
34815;DHT22;21030;53.912;15.214;2022-10-15T17:30:03;36.90;29.50
34815;DHT22;21030;53.912;15.214;2022-10-15T17:32:33;37.20;29.60
34815;DHT22;21030;53.912;15.214;2022-10-15T17:35:06;36.90;29.60
34815;DHT22;21030;53.912;15.214;2022-10-15T17:37:33;36.90;29.70
34815;DHT22;21030;53.912;15.214;2022-10-15T17:40:08;37.00;29.60
34815;DHT22;21030;53.912;15.214;2022-10-15T17:42:40;37.00;29.60
34815;DHT22;21030;53.912;15.214;2022-10-15T17:45:10;37.10;29.60
34815;DHT22;21030;53.912;15.214;2022-10-15T17:47:38;36.90;29.90
34815;DHT22;21030;53.912;15.214;2022-10-15T17:50:06;36.70;29.70
34815;DHT22;21030;53.912;15.214;2022-10-15T17:52:34;36.70;29.80
34815;DHT22;21030;53.912;15.214;2022-10-15T17:55:01;36.80;29.70
34815;DHT22;21030;53.912;15.214;2022-10-15T17:57:29;36.90;29.80
34815;DHT22;21030;53.912;15.214;2022-10-15T17:59:56;36.80;29.60